Time;durP1;ratioP1;P1;durP2;ratioP2;P2;SDS_P1;SDS_P2;PMS_P1;PMS_P2;Temp;Humidity;BMP_temperature;BMP_pressure;BME280_temperature;BME280_humidity;BME280_pressure;Samples;Min_cycle;Max_cycle;Signal;HPM_P1;HPM_P2
2023/12/08 00:00:29;;;;;;;96.93;36.33;;;;;;;;;;5005635;28;20095;-73
2023/12/08 00:02:55;;;;;;;109.75;40.35;;;;;;;;;;5007738;28;20653;-70
2023/12/08 00:05:22;;;;;;;96.32;35.75;;;;;;;;;;5022342;28;20050;-67
2023/12/08 00:07:48;;;;;;;96.03;36.90;;;;;;;;;;5008191;28;20058;-72
2023/12/08 00:10:15;;;;;;;90.82;34.30;;;;;;;;;;5007822;28;20041;-72
2023/12/08 00:12:41;;;;;;;104.22;35.50;;;;;;;;;;5008087;28;20053;-70
2023/12/08 00:15:09;;;;;;;87.90;35.28;;;;;;;;;;5007054;28;20594;-70
2023/12/08 00:17:36;;;;;;;89.75;34.10;;;;;;;;;;5008023;28;20466;-68
2023/12/08 00:20:03;;;;;;;100.53;36.65;;;;;;;;;;5007269;28;20477;-70
2023/12/08 00:22:29;;;;;;;93.47;35.97;;;;;;;;;;5006743;28;20161;-67
2023/12/08 00:24:56;;;;;;;103.47;37.28;;;;;;;;;;5007681;28;20057;-68
2023/12/08 00:27:22;;;;;;;107.65;36.60;;;;;;;;;;5007581;28;20050;-68
2023/12/08 00:29:49;;;;;;;96.30;34.92;;;;;;;;;;5008017;28;20046;-68
2023/12/08 00:32:16;;;;;;;92.50;35.47;;;;;;;;;;5007765;28;20046;-72
2023/12/08 00:34:45;;;;;;;104.18;33.97;;;;;;;;;;5007934;28;20108;-74
2023/12/08 00:37:11;;;;;;;97.05;36.05;;;;;;;;;;5008339;28;20083;-69
2023/12/08 00:39:38;;;;;;;94.28;32.63;;;;;;;;;;5008689;28;20057;-70
2023/12/08 00:42:05;;;;;;;91.60;31.30;;;;;;;;;;5000945;28;20919;-72
2023/12/08 00:44:31;;;;;;;91.32;33.45;;;;;;;;;;5000539;28;20620;-71
2023/12/08 00:46:57;;;;;;;81.03;31.48;;;;;;;;;;5005808;28;20091;-72
2023/12/08 00:49:24;;;;;;;86.88;32.97;;;;;;;;;;5007848;28;20073;-71
2023/12/08 00:51:50;;;;;;;87.20;32.78;;;;;;;;;;5004606;28;20133;-69
2023/12/08 00:54:17;;;;;;;86.90;33.38;;;;;;;;;;5009983;28;20492;-69
2023/12/08 00:56:43;;;;;;;88.43;32.15;;;;;;;;;;5002645;28;20553;-72
2023/12/08 00:59:10;;;;;;;82.55;31.80;;;;;;;;;;5007891;28;20556;-70
2023/12/08 01:01:36;;;;;;;88.80;30.58;;;;;;;;;;5006828;28;20072;-70
2023/12/08 01:04:05;;;;;;;86.72;31.20;;;;;;;;;;5007913;28;20065;-69
2023/12/08 01:06:32;;;;;;;85.75;33.25;;;;;;;;;;5004017;28;20445;-71
2023/12/08 01:08:59;;;;;;;86.65;31.42;;;;;;;;;;5007553;28;20453;-72
2023/12/08 01:11:25;;;;;;;81.72;33.83;;;;;;;;;;5000114;28;20129;-71
2023/12/08 01:13:52;;;;;;;88.88;32.15;;;;;;;;;;5005566;28;20085;-70
2023/12/08 01:16:19;;;;;;;84.03;31.42;;;;;;;;;;4999553;28;20046;-70
2023/12/08 01:18:45;;;;;;;86.78;31.80;;;;;;;;;;5003561;28;20060;-70
2023/12/08 01:21:12;;;;;;;87.93;32.38;;;;;;;;;;5003782;28;20060;-71
2023/12/08 01:23:39;;;;;;;83.07;31.50;;;;;;;;;;5004462;28;20053;-71
2023/12/08 01:26:06;;;;;;;85.10;32.58;;;;;;;;;;5007601;28;20064;-71
2023/12/08 01:28:32;;;;;;;82.25;30.40;;;;;;;;;;5007885;28;20130;-72
2023/12/08 01:30:59;;;;;;;90.35;34.28;;;;;;;;;;5008021;28;20504;-73
2023/12/08 01:33:25;;;;;;;85.60;31.90;;;;;;;;;;4996214;28;20077;-69
2023/12/08 01:35:52;;;;;;;80.07;30.92;;;;;;;;;;5007890;28;20045;-72
2023/12/08 01:38:38;;;;;;;73.80;29.40;;;;;;;;;;5001046;28;20151;-71
2023/12/08 01:41:06;;;;;;;79.07;31.95;;;;;;;;;;5009110;28;20096;-70
2023/12/08 01:43:32;;;;;;;83.20;31.33;;;;;;;;;;5009130;28;20542;-70
2023/12/08 01:45:59;;;;;;;81.95;32.70;;;;;;;;;;5003213;28;20055;-72
2023/12/08 01:48:26;;;;;;;86.60;30.80;;;;;;;;;;5007285;28;20376;-73
2023/12/08 01:50:52;;;;;;;77.22;29.58;;;;;;;;;;5007013;28;20064;-70
2023/12/08 01:53:19;;;;;;;78.28;30.65;;;;;;;;;;5007480;28;20054;-69
2023/12/08 01:55:46;;;;;;;82.35;32.42;;;;;;;;;;5005949;28;20065;-68
2023/12/08 01:58:13;;;;;;;79.82;30.60;;;;;;;;;;5007912;28;20073;-68
2023/12/08 02:00:41;;;;;;;83.30;31.15;;;;;;;;;;5007190;28;20046;-69
2023/12/08 02:03:08;;;;;;;82.30;32.25;;;;;;;;;;5008088;28;20053;-70
2023/12/08 02:05:36;;;;;;;86.60;31.73;;;;;;;;;;5007540;28;20046;-71
2023/12/08 02:08:02;;;;;;;85.57;34.08;;;;;;;;;;5008276;28;20053;-70
2023/12/08 02:10:32;;;;;;;83.90;32.05;;;;;;;;;;5007413;28;20177;-70
2023/12/08 02:12:59;;;;;;;83.45;32.08;;;;;;;;;;5007778;28;20116;-71
2023/12/08 02:15:26;;;;;;;70.45;30.15;;;;;;;;;;5007672;28;20038;-70
2023/12/08 02:17:53;;;;;;;80.80;32.15;;;;;;;;;;5007746;28;20111;-70
2023/12/08 02:20:20;;;;;;;81.78;33.20;;;;;;;;;;5007784;28;20045;-71
2023/12/08 02:22:46;;;;;;;82.25;32.13;;;;;;;;;;5007365;28;20073;-70
2023/12/08 02:25:12;;;;;;;80.97;32.67;;;;;;;;;;5006344;28;20403;-71
2023/12/08 02:27:42;;;;;;;86.85;33.50;;;;;;;;;;5007555;28;20057;-70
2023/12/08 02:30:09;;;;;;;88.55;34.30;;;;;;;;;;5007200;28;20388;-70
2023/12/08 02:32:57;;;;;;;86.60;33.22;;;;;;;;;;5007464;28;20061;-70
2023/12/08 02:35:25;;;;;;;86.40;31.40;;;;;;;;;;5010557;28;20053;-70
2023/12/08 02:37:54;;;;;;;82.70;32.50;;;;;;;;;;5006713;28;20101;-70
2023/12/08 02:40:21;;;;;;;76.68;31.25;;;;;;;;;;5008194;28;20057;-71
2023/12/08 02:42:47;;;;;;;84.15;32.58;;;;;;;;;;5007620;28;20049;-70
2023/12/08 02:45:17;;;;;;;87.65;33.17;;;;;;;;;;4992582;28;20064;-70
2023/12/08 02:47:43;;;;;;;68.70;31.77;;;;;;;;;;5007187;28;20050;-70
2023/12/08 02:50:10;;;;;;;85.15;33.60;;;;;;;;;;5007330;28;20104;-70
2023/12/08 02:52:36;;;;;;;71.30;28.17;;;;;;;;;;5007476;28;20123;-70
2023/12/08 02:55:03;;;;;;;82.53;33.45;;;;;;;;;;5005704;28;20645;-70
2023/12/08 02:57:30;;;;;;;85.35;31.40;;;;;;;;;;5007682;28;20487;-70
2023/12/08 02:59:56;;;;;;;84.28;31.05;;;;;;;;;;5006502;28;20096;-70
2023/12/08 03:02:23;;;;;;;82.22;32.20;;;;;;;;;;5006848;28;20123;-70
2023/12/08 03:04:49;;;;;;;83.93;32.75;;;;;;;;;;5009499;28;20613;-70
2023/12/08 03:07:16;;;;;;;86.88;31.10;;;;;;;;;;5010642;28;20511;-70
2023/12/08 03:09:42;;;;;;;88.63;32.25;;;;;;;;;;5010298;28;20445;-70
2023/12/08 03:12:09;;;;;;;81.20;31.40;;;;;;;;;;5010336;28;20352;-70
2023/12/08 03:14:35;;;;;;;89.53;32.25;;;;;;;;;;5010132;28;20048;-70
2023/12/08 03:17:02;;;;;;;83.75;32.17;;;;;;;;;;5010218;28;20783;-70
2023/12/08 03:19:28;;;;;;;82.28;32.67;;;;;;;;;;5010343;28;20042;-70
2023/12/08 03:21:55;;;;;;;83.38;31.25;;;;;;;;;;5010093;28;20245;-70
2023/12/08 03:24:21;;;;;;;85.43;33.83;;;;;;;;;;5010437;28;20620;-70
2023/12/08 03:26:47;;;;;;;81.30;31.75;;;;;;;;;;5009123;28;20042;-70
2023/12/08 03:29:15;;;;;;;83.65;31.48;;;;;;;;;;5010434;28;20064;-70
2023/12/08 03:31:42;;;;;;;91.63;36.03;;;;;;;;;;5010012;28;20054;-70
2023/12/08 03:34:08;;;;;;;88.75;33.67;;;;;;;;;;5010176;28;20084;-70
2023/12/08 03:36:35;;;;;;;79.00;32.05;;;;;;;;;;5009992;28;20053;-70
2023/12/08 03:39:02;;;;;;;85.68;31.10;;;;;;;;;;5009642;28;20078;-70
2023/12/08 03:41:28;;;;;;;92.07;33.28;;;;;;;;;;5010092;28;20085;-70
2023/12/08 03:43:55;;;;;;;96.38;34.05;;;;;;;;;;5009879;28;20054;-70
2023/12/08 03:46:21;;;;;;;80.75;31.67;;;;;;;;;;5010045;28;20050;-70
2023/12/08 03:48:47;;;;;;;90.25;33.03;;;;;;;;;;5009693;28;20576;-70
2023/12/08 03:51:18;;;;;;;85.23;33.17;;;;;;;;;;5009972;28;20054;-70
2023/12/08 03:53:45;;;;;;;78.88;30.95;;;;;;;;;;5009667;28;20046;-70
2023/12/08 03:56:11;;;;;;;80.72;30.60;;;;;;;;;;5008803;28;20046;-70
2023/12/08 03:58:37;;;;;;;82.75;32.80;;;;;;;;;;5009819;28;20141;-70
2023/12/08 04:01:04;;;;;;;91.07;35.45;;;;;;;;;;5009204;28;20117;-70
2023/12/08 04:03:31;;;;;;;85.75;33.58;;;;;;;;;;5011080;28;20046;-71
2023/12/08 04:05:57;;;;;;;84.45;33.58;;;;;;;;;;5010281;28;20042;-71
2023/12/08 04:08:24;;;;;;;81.05;33.08;;;;;;;;;;5009855;28;20435;-70
2023/12/08 04:10:50;;;;;;;88.32;33.03;;;;;;;;;;5008882;28;20056;-70
2023/12/08 04:13:17;;;;;;;94.10;33.47;;;;;;;;;;5009724;28;20116;-70
2023/12/08 04:15:43;;;;;;;84.45;33.60;;;;;;;;;;5008029;28;20050;-70
2023/12/08 04:18:10;;;;;;;90.53;32.88;;;;;;;;;;5009711;28;20050;-70
2023/12/08 04:20:36;;;;;;;94.70;34.08;;;;;;;;;;5008428;28;20073;-70
2023/12/08 04:23:05;;;;;;;92.80;36.75;;;;;;;;;;5009590;28;20057;-70
2023/12/08 04:25:31;;;;;;;108.53;38.55;;;;;;;;;;5009077;28;20046;-70
2023/12/08 04:27:58;;;;;;;110.75;39.00;;;;;;;;;;5009623;28;20070;-71
2023/12/08 04:30:24;;;;;;;99.95;35.72;;;;;;;;;;5009901;28;20049;-70
2023/12/08 04:32:50;;;;;;;110.15;35.30;;;;;;;;;;5008168;28;20041;-70
2023/12/08 04:35:17;;;;;;;108.40;36.58;;;;;;;;;;5008630;28;20050;-70
2023/12/08 04:37:44;;;;;;;109.55;35.08;;;;;;;;;;5009509;28;20050;-70
2023/12/08 04:40:10;;;;;;;112.57;37.30;;;;;;;;;;5008480;28;20054;-70
2023/12/08 04:42:38;;;;;;;108.85;36.55;;;;;;;;;;5009018;28;20487;-70
2023/12/08 04:45:05;;;;;;;110.60;34.65;;;;;;;;;;5008359;28;20491;-70
2023/12/08 04:47:32;;;;;;;127.45;39.35;;;;;;;;;;5008774;28;20112;-70
2023/12/08 04:49:59;;;;;;;124.68;37.30;;;;;;;;;;5009631;28;20046;-71
2023/12/08 04:52:25;;;;;;;119.10;37.67;;;;;;;;;;5010654;28;20494;-72
2023/12/08 04:54:52;;;;;;;94.50;34.08;;;;;;;;;;5010428;28;20100;-70
2023/12/08 04:57:18;;;;;;;95.78;33.65;;;;;;;;;;5011759;28;20398;-70
2023/12/08 04:59:45;;;;;;;114.22;37.67;;;;;;;;;;5012022;28;20486;-70
2023/12/08 05:02:11;;;;;;;100.90;35.03;;;;;;;;;;5009284;28;20054;-70
2023/12/08 05:04:38;;;;;;;112.38;35.28;;;;;;;;;;5008957;28;20050;-70
2023/12/08 05:07:04;;;;;;;131.18;38.70;;;;;;;;;;5007044;28;20137;-70
2023/12/08 05:09:30;;;;;;;127.80;37.13;;;;;;;;;;5008498;28;20053;-71
2023/12/08 05:11:57;;;;;;;126.38;38.03;;;;;;;;;;5007857;28;20050;-70
2023/12/08 05:14:23;;;;;;;129.80;39.15;;;;;;;;;;5009445;28;20139;-71
2023/12/08 05:16:50;;;;;;;139.18;39.53;;;;;;;;;;5009580;28;20056;-70
2023/12/08 05:19:16;;;;;;;137.82;42.13;;;;;;;;;;5008354;28;20073;-70
2023/12/08 05:21:43;;;;;;;146.68;41.97;;;;;;;;;;5008619;28;20448;-70
2023/12/08 05:24:10;;;;;;;161.82;43.95;;;;;;;;;;5008930;28;20081;-71
2023/12/08 05:26:37;;;;;;;141.88;43.40;;;;;;;;;;5008742;28;20046;-70
2023/12/08 05:29:03;;;;;;;151.25;45.85;;;;;;;;;;5007656;28;20050;-70
2023/12/08 05:31:30;;;;;;;136.27;43.15;;;;;;;;;;5009104;28;20042;-70
2023/12/08 05:33:56;;;;;;;140.60;43.45;;;;;;;;;;5008675;28;20054;-70
2023/12/08 05:36:23;;;;;;;129.43;39.78;;;;;;;;;;5008600;28;20046;-70
2023/12/08 05:38:49;;;;;;;144.80;45.92;;;;;;;;;;5006850;28;20038;-70
2023/12/08 05:41:16;;;;;;;143.75;43.03;;;;;;;;;;5007795;28;20382;-70
2023/12/08 05:43:42;;;;;;;127.25;39.15;;;;;;;;;;5008082;28;20092;-70
2023/12/08 05:46:09;;;;;;;122.57;39.05;;;;;;;;;;5008639;28;20057;-70
2023/12/08 05:48:35;;;;;;;128.00;40.88;;;;;;;;;;5008605;28;20458;-71
2023/12/08 05:51:02;;;;;;;124.72;38.10;;;;;;;;;;5007846;28;20060;-70
2023/12/08 05:53:29;;;;;;;116.40;39.40;;;;;;;;;;5009038;28;20129;-71
2023/12/08 05:55:55;;;;;;;109.20;38.13;;;;;;;;;;5008504;28;20049;-70
2023/12/08 05:58:24;;;;;;;115.97;38.55;;;;;;;;;;5008613;28;20058;-70
2023/12/08 06:00:51;;;;;;;103.85;37.38;;;;;;;;;;5004770;28;20141;-70
2023/12/08 06:03:17;;;;;;;118.35;36.83;;;;;;;;;;5010277;28;20106;-70
2023/12/08 06:05:43;;;;;;;106.57;36.58;;;;;;;;;;5008055;28;20050;-70
2023/12/08 06:08:10;;;;;;;108.28;39.45;;;;;;;;;;5008371;28;20080;-70
2023/12/08 06:10:37;;;;;;;94.70;35.63;;;;;;;;;;5007540;28;20135;-70
2023/12/08 06:13:03;;;;;;;103.05;34.47;;;;;;;;;;5007673;28;20054;-70
2023/12/08 06:15:30;;;;;;;99.97;36.47;;;;;;;;;;5008080;28;20077;-70
2023/12/08 06:17:57;;;;;;;102.97;38.58;;;;;;;;;;5007416;28;20077;-70
2023/12/08 06:20:23;;;;;;;103.15;33.33;;;;;;;;;;5007347;28;20068;-70
2023/12/08 06:22:50;;;;;;;121.07;37.83;;;;;;;;;;5007200;28;20065;-70
2023/12/08 06:25:16;;;;;;;99.50;35.78;;;;;;;;;;5007835;28;20053;-70
2023/12/08 06:27:43;;;;;;;103.18;35.33;;;;;;;;;;5007443;28;20690;-70
2023/12/08 06:30:11;;;;;;;105.13;36.13;;;;;;;;;;4993381;28;20513;-70
2023/12/08 06:32:37;;;;;;;103.63;36.20;;;;;;;;;;5007739;28;20088;-70
2023/12/08 06:35:04;;;;;;;111.95;38.40;;;;;;;;;;5007328;28;20228;-70
2023/12/08 06:37:31;;;;;;;104.88;37.40;;;;;;;;;;4999560;28;20042;-70
2023/12/08 06:39:57;;;;;;;104.75;34.70;;;;;;;;;;5010703;28;20104;-70
2023/12/08 06:42:23;;;;;;;105.63;35.42;;;;;;;;;;5011243;28;20111;-70
2023/12/08 06:44:50;;;;;;;120.65;39.22;;;;;;;;;;5011199;28;20052;-70
2023/12/08 06:47:16;;;;;;;109.93;36.75;;;;;;;;;;5010721;28;20084;-70
2023/12/08 06:49:43;;;;;;;120.47;37.20;;;;;;;;;;5011227;28;20125;-70
2023/12/08 06:52:09;;;;;;;106.25;36.72;;;;;;;;;;5010885;28;20041;-70
2023/12/08 06:54:36;;;;;;;113.80;37.30;;;;;;;;;;5010909;28;20045;-70
2023/12/08 06:57:02;;;;;;;103.15;37.88;;;;;;;;;;5010264;28;20054;-70
2023/12/08 06:59:29;;;;;;;116.75;37.13;;;;;;;;;;5007961;28;20061;-70
2023/12/08 07:01:55;;;;;;;112.47;36.03;;;;;;;;;;5009721;28;20073;-70
2023/12/08 07:04:22;;;;;;;117.65;38.17;;;;;;;;;;5011458;28;20457;-70
2023/12/08 07:06:48;;;;;;;119.57;38.10;;;;;;;;;;5010752;28;20076;-70
2023/12/08 07:09:15;;;;;;;120.78;40.25;;;;;;;;;;5010715;28;20058;-70
2023/12/08 07:11:41;;;;;;;121.47;38.78;;;;;;;;;;5013660;28;20054;-70
2023/12/08 07:14:08;;;;;;;112.38;35.33;;;;;;;;;;5013063;28;20092;-70
2023/12/08 07:16:34;;;;;;;104.97;35.72;;;;;;;;;;5011059;28;20077;-70
2023/12/08 07:19:01;;;;;;;110.97;35.85;;;;;;;;;;5013067;28;20052;-71
2023/12/08 07:21:27;;;;;;;93.65;34.47;;;;;;;;;;5014774;28;20225;-70
2023/12/08 07:23:54;;;;;;;86.90;34.25;;;;;;;;;;5006309;28;20048;-71
2023/12/08 07:26:20;;;;;;;89.18;32.88;;;;;;;;;;5006240;28;20137;-71
2023/12/08 07:28:47;;;;;;;109.07;35.90;;;;;;;;;;5010477;28;20046;-70
2023/12/08 07:31:13;;;;;;;96.57;36.35;;;;;;;;;;5010020;28;20108;-70
2023/12/08 07:33:40;;;;;;;97.47;35.42;;;;;;;;;;5009565;28;20042;-71
2023/12/08 07:36:07;;;;;;;88.03;35.90;;;;;;;;;;5011263;28;20097;-71
2023/12/08 07:38:36;;;;;;;86.25;33.35;;;;;;;;;;5010550;28;20050;-70
2023/12/08 07:41:03;;;;;;;88.82;34.90;;;;;;;;;;5009881;28;20060;-70
2023/12/08 07:43:29;;;;;;;86.88;32.83;;;;;;;;;;5010350;28;20046;-70
2023/12/08 07:45:56;;;;;;;81.88;33.30;;;;;;;;;;5010114;28;20116;-70
2023/12/08 07:48:22;;;;;;;94.03;32.92;;;;;;;;;;5009725;28;20042;-70
2023/12/08 07:50:49;;;;;;;86.82;32.30;;;;;;;;;;5008686;28;20046;-70
2023/12/08 07:53:15;;;;;;;88.63;33.25;;;;;;;;;;5010175;28;20045;-70
2023/12/08 07:55:42;;;;;;;85.88;32.90;;;;;;;;;;5009727;28;20485;-70
2023/12/08 07:58:09;;;;;;;76.50;30.35;;;;;;;;;;5010743;28;20042;-70
2023/12/08 08:00:35;;;;;;;89.40;31.98;;;;;;;;;;5010347;28;20116;-70
2023/12/08 08:03:02;;;;;;;83.25;30.52;;;;;;;;;;5008805;28;20108;-70
2023/12/08 08:05:29;;;;;;;75.93;31.98;;;;;;;;;;5009312;28;20529;-70
2023/12/08 08:07:56;;;;;;;81.30;31.80;;;;;;;;;;5009415;28;20045;-70
2023/12/08 08:10:22;;;;;;;72.32;30.67;;;;;;;;;;5009031;28;20605;-70
2023/12/08 08:12:48;;;;;;;75.45;30.77;;;;;;;;;;5009726;28;20046;-70
2023/12/08 08:15:15;;;;;;;72.88;30.33;;;;;;;;;;5009292;28;20053;-70
2023/12/08 08:17:42;;;;;;;64.88;28.17;;;;;;;;;;5009035;28;20593;-70
2023/12/08 08:20:09;;;;;;;63.33;28.33;;;;;;;;;;5009353;28;20128;-70
2023/12/08 08:22:35;;;;;;;76.20;29.92;;;;;;;;;;5010898;28;20061;-71
2023/12/08 08:25:02;;;;;;;68.63;26.30;;;;;;;;;;5009389;28;20054;-70
2023/12/08 08:27:29;;;;;;;63.63;28.95;;;;;;;;;;5009303;28;20138;-70
2023/12/08 08:29:57;;;;;;;62.47;26.55;;;;;;;;;;5009075;28;20052;-70
2023/12/08 08:32:23;;;;;;;61.72;27.85;;;;;;;;;;5009718;28;20052;-70
2023/12/08 08:34:51;;;;;;;64.47;26.85;;;;;;;;;;5009950;28;20046;-70
2023/12/08 08:37:23;;;;;;;57.30;25.73;;;;;;;;;;5009996;28;20070;-70
2023/12/08 08:39:50;;;;;;;57.38;25.00;;;;;;;;;;5010355;28;20568;-69
2023/12/08 08:42:17;;;;;;;55.25;24.38;;;;;;;;;;5008963;28;20048;-70
2023/12/08 08:44:43;;;;;;;60.25;26.85;;;;;;;;;;5009266;28;20126;-70
2023/12/08 08:47:12;;;;;;;58.92;23.60;;;;;;;;;;5008686;28;20530;-70
2023/12/08 08:49:38;;;;;;;58.55;25.45;;;;;;;;;;5009273;28;20077;-73
2023/12/08 08:52:05;;;;;;;52.00;22.33;;;;;;;;;;5008649;28;20518;-70
2023/12/08 08:54:31;;;;;;;50.83;23.92;;;;;;;;;;5008921;28;20049;-70
2023/12/08 08:56:59;;;;;;;52.38;23.95;;;;;;;;;;5005396;28;20403;-70
2023/12/08 08:59:25;;;;;;;53.47;23.50;;;;;;;;;;5008753;28;20486;-70
2023/12/08 09:01:52;;;;;;;57.22;26.38;;;;;;;;;;5006675;28;20049;-70
2023/12/08 09:04:18;;;;;;;52.97;24.15;;;;;;;;;;5007641;28;20133;-70
2023/12/08 09:06:45;;;;;;;50.42;23.35;;;;;;;;;;5007247;28;20042;-70
2023/12/08 09:09:12;;;;;;;48.00;24.58;;;;;;;;;;5008249;28;20537;-70
2023/12/08 09:11:38;;;;;;;55.53;24.73;;;;;;;;;;5008373;28;20537;-70
2023/12/08 09:14:05;;;;;;;55.83;23.75;;;;;;;;;;5008224;28;20080;-70
2023/12/08 09:16:31;;;;;;;44.22;21.58;;;;;;;;;;5008516;28;20057;-70
2023/12/08 09:18:58;;;;;;;50.15;21.73;;;;;;;;;;5008122;28;20145;-70
2023/12/08 09:21:24;;;;;;;47.90;21.23;;;;;;;;;;5010799;28;20053;-70
2023/12/08 09:23:51;;;;;;;48.90;23.88;;;;;;;;;;5008952;28;20499;-70
2023/12/08 09:26:17;;;;;;;53.58;23.98;;;;;;;;;;5008674;28;20077;-71
2023/12/08 09:28:44;;;;;;;50.75;22.98;;;;;;;;;;5008609;28;20053;-70
2023/12/08 09:31:10;;;;;;;45.45;20.52;;;;;;;;;;5008348;28;20046;-70
2023/12/08 09:33:37;;;;;;;45.53;20.30;;;;;;;;;;5008482;28;20049;-71
2023/12/08 09:36:04;;;;;;;45.78;20.80;;;;;;;;;;5008790;28;20129;-70
2023/12/08 09:38:31;;;;;;;46.00;20.98;;;;;;;;;;5003173;28;20145;-71
2023/12/08 09:41:04;;;;;;;49.33;21.58;;;;;;;;;;5007661;28;20069;-71
2023/12/08 09:43:38;;;;;;;42.00;21.00;;;;;;;;;;5008798;28;20071;-71
2023/12/08 09:46:05;;;;;;;45.33;20.42;;;;;;;;;;5008590;28;20368;-70
2023/12/08 09:48:33;;;;;;;46.20;21.27;;;;;;;;;;5007871;28;20050;-71
2023/12/08 09:51:01;;;;;;;55.08;22.67;;;;;;;;;;5007839;28;20054;-71
2023/12/08 09:53:29;;;;;;;43.90;19.48;;;;;;;;;;5007659;28;20046;-71
2023/12/08 09:55:55;;;;;;;45.25;22.02;;;;;;;;;;5007773;28;20565;-71
2023/12/08 09:58:25;;;;;;;49.50;20.45;;;;;;;;;;5007955;28;20081;-73
2023/12/08 10:00:51;;;;;;;49.08;23.25;;;;;;;;;;5008021;28;20061;-71
2023/12/08 10:03:18;;;;;;;46.67;22.30;;;;;;;;;;5007766;28;20537;-71
2023/12/08 10:05:44;;;;;;;47.08;21.42;;;;;;;;;;5006675;28;20136;-71
2023/12/08 10:08:12;;;;;;;47.33;20.65;;;;;;;;;;5008244;28;20077;-71
2023/12/08 10:10:38;;;;;;;43.97;20.88;;;;;;;;;;5007116;28;20050;-71
2023/12/08 10:13:05;;;;;;;45.30;21.20;;;;;;;;;;5007525;28;20124;-71
2023/12/08 10:15:31;;;;;;;52.15;20.95;;;;;;;;;;5011840;28;20080;-71
2023/12/08 10:17:58;;;;;;;44.88;19.85;;;;;;;;;;5012488;28;20062;-71
2023/12/08 10:20:24;;;;;;;41.55;20.02;;;;;;;;;;5012114;28;20049;-71
2023/12/08 10:22:51;;;;;;;44.38;21.83;;;;;;;;;;5012342;28;20084;-71
2023/12/08 10:25:18;;;;;;;42.17;20.98;;;;;;;;;;5010930;28;20050;-71
2023/12/08 10:27:46;;;;;;;50.25;21.63;;;;;;;;;;5012024;28;20810;-71
2023/12/08 10:30:14;;;;;;;48.10;21.17;;;;;;;;;;5011089;28;20049;-71
2023/12/08 10:32:42;;;;;;;41.80;19.63;;;;;;;;;;5011641;28;20046;-71
2023/12/08 10:35:10;;;;;;;46.88;21.67;;;;;;;;;;5010145;28;20046;-71
2023/12/08 10:37:36;;;;;;;41.05;21.60;;;;;;;;;;5011113;28;20407;-71
2023/12/08 10:40:03;;;;;;;45.00;22.42;;;;;;;;;;5010869;28;20125;-71
2023/12/08 10:42:30;;;;;;;41.08;20.58;;;;;;;;;;5011513;28;20050;-71
2023/12/08 10:45:01;;;;;;;52.10;21.65;;;;;;;;;;5011216;28;20061;-71
2023/12/08 10:47:28;;;;;;;43.07;21.57;;;;;;;;;;5011312;28;20046;-71
2023/12/08 10:49:54;;;;;;;46.63;23.10;;;;;;;;;;5011317;28;20202;-70
2023/12/08 10:52:21;;;;;;;50.30;23.15;;;;;;;;;;5010802;28;20093;-71
2023/12/08 10:54:49;;;;;;;47.20;23.33;;;;;;;;;;5011306;28;20050;-71
2023/12/08 10:57:15;;;;;;;48.20;23.23;;;;;;;;;;5010888;28;20057;-71
2023/12/08 10:59:43;;;;;;;48.88;21.65;;;;;;;;;;5011294;28;20046;-71
2023/12/08 11:02:17;;;;;;;52.45;23.90;;;;;;;;;;5010737;28;20116;-70
2023/12/08 11:04:45;;;;;;;49.40;22.75;;;;;;;;;;5011547;28;20050;-71
2023/12/08 11:07:15;;;;;;;50.30;23.67;;;;;;;;;;5009080;28;20050;-70
2023/12/08 11:09:42;;;;;;;46.90;22.17;;;;;;;;;;5012323;28;20046;-70
2023/12/08 11:12:10;;;;;;;48.90;24.08;;;;;;;;;;5010035;28;20058;-71
2023/12/08 11:14:38;;;;;;;50.30;24.85;;;;;;;;;;5011442;28;20396;-71
2023/12/08 11:17:09;;;;;;;48.88;23.00;;;;;;;;;;5009907;28;20054;-71
2023/12/08 11:19:36;;;;;;;51.53;24.33;;;;;;;;;;5006665;28;20050;-70
2023/12/08 11:22:04;;;;;;;47.58;24.00;;;;;;;;;;5010344;28;20042;-71
2023/12/08 11:24:30;;;;;;;49.55;23.65;;;;;;;;;;5010551;28;20113;-71
2023/12/08 11:27:15;;;;;;;48.42;24.48;;;;;;;;;;5010539;28;20491;-71
2023/12/08 11:30:11;;;;;;;49.85;22.05;;;;;;;;;;5010301;28;20068;-71
2023/12/08 11:32:44;;;;;;;43.72;21.17;;;;;;;;;;4984404;28;20174;-71
2023/12/08 11:35:12;;;;;;;47.63;23.30;;;;;;;;;;5010108;28;20549;-71
2023/12/08 11:37:40;;;;;;;47.50;23.17;;;;;;;;;;5009909;28;20053;-71
2023/12/08 11:40:10;;;;;;;48.20;21.90;;;;;;;;;;5010298;28;20045;-71
2023/12/08 11:42:38;;;;;;;46.80;22.15;;;;;;;;;;5010461;28;20141;-71
2023/12/08 11:45:07;;;;;;;49.17;24.17;;;;;;;;;;5010517;28;20046;-71
2023/12/08 11:47:35;;;;;;;50.03;22.15;;;;;;;;;;5010594;28;20052;-71
2023/12/08 11:50:03;;;;;;;45.53;22.30;;;;;;;;;;5010613;28;20485;-71
2023/12/08 11:52:30;;;;;;;56.45;24.15;;;;;;;;;;5014754;28;20049;-73
2023/12/08 11:55:12;;;;;;;53.05;25.30;;;;;;;;;;5011798;28;20058;-70
2023/12/08 11:57:53;;;;;;;49.22;22.95;;;;;;;;;;5011345;28;20046;-74
2023/12/08 12:00:21;;;;;;;50.40;23.90;;;;;;;;;;5009969;28;20446;-71
2023/12/08 12:02:48;;;;;;;49.63;23.67;;;;;;;;;;5010897;28;20096;-71
2023/12/08 12:05:15;;;;;;;49.97;24.25;;;;;;;;;;5010083;28;20056;-71
2023/12/08 12:07:45;;;;;;;54.17;24.95;;;;;;;;;;5007935;28;20132;-70
2023/12/08 12:10:12;;;;;;;45.83;23.23;;;;;;;;;;5009955;28;20058;-70
2023/12/08 12:12:44;;;;;;;51.83;24.30;;;;;;;;;;5011210;28;20108;-71
2023/12/08 12:15:11;;;;;;;57.97;25.55;;;;;;;;;;5011083;28;20502;-72
2023/12/08 12:17:38;;;;;;;46.08;23.85;;;;;;;;;;5010970;28;20494;-71
2023/12/08 12:20:06;;;;;;;47.47;22.60;;;;;;;;;;5009525;28;20055;-70
2023/12/08 12:22:32;;;;;;;49.53;23.20;;;;;;;;;;5009527;28;20062;-70
2023/12/08 12:24:59;;;;;;;52.88;22.75;;;;;;;;;;5009930;28;20057;-71
2023/12/08 12:27:25;;;;;;;48.53;22.83;;;;;;;;;;5009432;28;20050;-70
2023/12/08 12:29:53;;;;;;;51.15;22.73;;;;;;;;;;5009800;28;20100;-70
2023/12/08 12:32:19;;;;;;;50.13;23.38;;;;;;;;;;5010026;28;20467;-73
2023/12/08 12:34:46;;;;;;;50.10;23.45;;;;;;;;;;5011040;28;20483;-72
2023/12/08 12:37:12;;;;;;;47.08;22.40;;;;;;;;;;5007675;28;20057;-70
2023/12/08 12:39:39;;;;;;;48.80;23.58;;;;;;;;;;5010081;28;20049;-70
2023/12/08 12:42:05;;;;;;;46.03;21.20;;;;;;;;;;5009031;28;20140;-71
2023/12/08 12:44:45;;;;;;;44.97;20.60;;;;;;;;;;5010505;28;20073;-70
2023/12/08 12:47:12;;;;;;;48.83;23.23;;;;;;;;;;5006686;28;20108;-70
2023/12/08 12:49:40;;;;;;;46.85;23.05;;;;;;;;;;5010986;28;20037;-71
2023/12/08 12:52:19;;;;;;;43.88;21.45;;;;;;;;;;5010109;28;20049;-71
2023/12/08 12:54:45;;;;;;;52.90;23.75;;;;;;;;;;5008740;28;20046;-71
2023/12/08 12:57:14;;;;;;;48.17;23.65;;;;;;;;;;5003793;28;20046;-71
2023/12/08 12:59:53;;;;;;;43.25;21.85;;;;;;;;;;5003135;28;20104;-70
2023/12/08 13:02:27;;;;;;;43.95;22.67;;;;;;;;;;5008723;28;20212;-70
2023/12/08 13:04:54;;;;;;;46.75;22.13;;;;;;;;;;5010508;28;20054;-70
2023/12/08 13:07:21;;;;;;;44.25;22.67;;;;;;;;;;5008778;28;20054;-70
2023/12/08 13:09:47;;;;;;;46.25;21.38;;;;;;;;;;5007831;28;20041;-70
2023/12/08 13:12:14;;;;;;;49.83;22.25;;;;;;;;;;5008432;28;20710;-70
2023/12/08 13:14:40;;;;;;;44.30;21.23;;;;;;;;;;5008164;28;20060;-70
2023/12/08 13:17:07;;;;;;;44.90;21.75;;;;;;;;;;5008083;28;20379;-71
2023/12/08 13:19:34;;;;;;;55.17;24.85;;;;;;;;;;5008718;28;20042;-70
2023/12/08 13:22:00;;;;;;;49.50;23.17;;;;;;;;;;5008256;28;20050;-70
2023/12/08 13:24:27;;;;;;;50.78;22.73;;;;;;;;;;5004207;28;20613;-70
2023/12/08 13:26:53;;;;;;;43.65;21.58;;;;;;;;;;5004495;28;20057;-71
2023/12/08 13:29:20;;;;;;;45.88;22.67;;;;;;;;;;5009038;28;20073;-70
2023/12/08 13:31:46;;;;;;;44.90;21.80;;;;;;;;;;5009123;28;21238;-70
2023/12/08 13:34:13;;;;;;;48.97;24.05;;;;;;;;;;5009304;28;20056;-70
2023/12/08 13:36:40;;;;;;;49.05;22.35;;;;;;;;;;4999427;28;20412;-70
2023/12/08 13:39:06;;;;;;;48.67;22.35;;;;;;;;;;5007346;28;20686;-70
2023/12/08 13:41:33;;;;;;;51.83;22.45;;;;;;;;;;5007902;28;20137;-70
2023/12/08 13:43:59;;;;;;;44.33;21.48;;;;;;;;;;5008266;28;20072;-70
2023/12/08 13:46:26;;;;;;;44.92;21.38;;;;;;;;;;5007452;28;20092;-70
2023/12/08 13:48:52;;;;;;;51.47;24.48;;;;;;;;;;5007971;28;20097;-70
2023/12/08 13:51:19;;;;;;;48.85;22.58;;;;;;;;;;5007562;28;20057;-70
2023/12/08 13:54:04;;;;;;;48.50;21.63;;;;;;;;;;5008096;28;20509;-70
2023/12/08 13:56:31;;;;;;;44.97;21.55;;;;;;;;;;5008095;28;20093;-70
2023/12/08 13:58:58;;;;;;;46.05;20.90;;;;;;;;;;5006683;28;20088;-70
2023/12/08 14:01:24;;;;;;;45.05;22.10;;;;;;;;;;5007453;28;20136;-71
2023/12/08 14:03:51;;;;;;;44.53;22.38;;;;;;;;;;5008639;28;20042;-69
2023/12/08 14:06:19;;;;;;;44.33;20.80;;;;;;;;;;5008689;28;20053;-73
2023/12/08 14:08:46;;;;;;;48.90;22.77;;;;;;;;;;5012897;28;20546;-71
2023/12/08 14:11:13;;;;;;;50.13;22.58;;;;;;;;;;5008297;28;20050;-71
2023/12/08 14:13:39;;;;;;;42.72;22.40;;;;;;;;;;5008117;28;20126;-71